sensor_id;sensor_type;location;lat;lon;timestamp;pressure;altitude;pressure_sealevel;temperature;humidity
63901;BME280;50538;53.482;10.294;2022-09-21T00:00:43;102056.78;;;12.58;58.82
63901;BME280;50538;53.482;10.294;2022-09-21T00:11:17;102060.72;;;12.45;59.17
63901;BME280;50538;53.482;10.294;2022-09-21T00:21:46;102068.88;;;12.34;59.51
63901;BME280;50538;53.482;10.294;2022-09-21T00:32:24;102072.69;;;12.31;59.98
63901;BME280;50538;53.482;10.294;2022-09-21T00:43:22;102081.50;;;12.32;59.44
63901;BME280;50538;53.482;10.294;2022-09-21T00:53:57;102074.09;;;12.25;58.96
63901;BME280;50538;53.482;10.294;2022-09-21T01:04:00;102078.06;;;12.21;59.35
63901;BME280;50538;53.482;10.294;2022-09-21T01:35:08;102086.22;;;11.91;58.98
63901;BME280;50538;53.482;10.294;2022-09-21T01:45:11;102095.59;;;11.85;59.21
63901;BME280;50538;53.482;10.294;2022-09-21T01:55:26;102097.28;;;11.77;59.08
63901;BME280;50538;53.482;10.294;2022-09-21T02:05:29;102100.94;;;11.76;59.75
63901;BME280;50538;53.482;10.294;2022-09-21T02:15:48;102107.38;;;11.73;59.55
63901;BME280;50538;53.482;10.294;2022-09-21T02:26:00;102098.28;;;11.66;59.12
63901;BME280;50538;53.482;10.294;2022-09-21T02:36:48;102095.19;;;11.61;59.22
63901;BME280;50538;53.482;10.294;2022-09-21T02:46:51;102099.94;;;11.48;60.00
63901;BME280;50538;53.482;10.294;2022-09-21T02:56:54;102102.03;;;11.44;59.42
63901;BME280;50538;53.482;10.294;2022-09-21T03:06:59;102105.97;;;11.40;59.49
63901;BME280;50538;53.482;10.294;2022-09-21T03:17:00;102115.31;;;11.35;59.86
63901;BME280;50538;53.482;10.294;2022-09-21T03:27:00;102119.94;;;11.33;60.12
63901;BME280;50538;53.482;10.294;2022-09-21T03:37:03;102124.81;;;11.27;59.30
63901;BME280;50538;53.482;10.294;2022-09-21T03:47:04;102127.63;;;11.26;60.72
63901;BME280;50538;53.482;10.294;2022-09-21T03:57:06;102129.13;;;11.19;59.77
63901;BME280;50538;53.482;10.294;2022-09-21T04:07:08;102136.66;;;11.14;59.57
63901;BME280;50538;53.482;10.294;2022-09-21T04:17:09;102132.19;;;11.14;59.67
63901;BME280;50538;53.482;10.294;2022-09-21T04:27:11;102129.41;;;11.06;59.66
63901;BME280;50538;53.482;10.294;2022-09-21T04:37:12;102136.94;;;11.01;60.42
63901;BME280;50538;53.482;10.294;2022-09-21T04:47:15;102143.50;;;10.97;59.79
63901;BME280;50538;53.482;10.294;2022-09-21T04:57:16;102144.72;;;10.93;60.19
63901;BME280;50538;53.482;10.294;2022-09-21T05:07:16;102150.41;;;10.88;60.04
63901;BME280;50538;53.482;10.294;2022-09-21T05:17:17;102162.16;;;10.86;60.06
63901;BME280;50538;53.482;10.294;2022-09-21T05:27:24;102165.50;;;10.88;60.47
63901;BME280;50538;53.482;10.294;2022-09-21T05:47:50;102168.66;;;10.93;62.02
63901;BME280;50538;53.482;10.294;2022-09-21T05:58:12;102167.59;;;11.15;62.94
63901;BME280;50538;53.482;10.294;2022-09-21T06:08:18;102174.88;;;11.63;63.44
63901;BME280;50538;53.482;10.294;2022-09-21T06:18:19;102171.81;;;12.15;66.02
63901;BME280;50538;53.482;10.294;2022-09-21T06:28:20;102181.97;;;12.78;66.38
63901;BME280;50538;53.482;10.294;2022-09-21T06:38:21;102193.56;;;13.51;65.21
63901;BME280;50538;53.482;10.294;2022-09-21T06:48:22;102178.44;;;14.22;66.73
63901;BME280;50538;53.482;10.294;2022-09-21T06:58:23;102186.66;;;14.99;65.55
63901;BME280;50538;53.482;10.294;2022-09-21T07:08:23;102185.44;;;15.61;63.80
63901;BME280;50538;53.482;10.294;2022-09-21T07:18:24;102189.38;;;16.32;62.66
63901;BME280;50538;53.482;10.294;2022-09-21T07:28:24;102192.16;;;16.87;61.64
63901;BME280;50538;53.482;10.294;2022-09-21T07:38:25;102203.00;;;17.49;60.27
63901;BME280;50538;53.482;10.294;2022-09-21T07:48:27;102197.22;;;18.14;58.99
63901;BME280;50538;53.482;10.294;2022-09-21T07:58:28;102203.72;;;18.80;58.06
63901;BME280;50538;53.482;10.294;2022-09-21T08:08:47;102202.88;;;19.38;56.44
63901;BME280;50538;53.482;10.294;2022-09-21T08:18:49;102198.47;;;19.88;54.89
63901;BME280;50538;53.482;10.294;2022-09-21T08:28:51;102210.03;;;20.46;52.86
63901;BME280;50538;53.482;10.294;2022-09-21T08:38:52;102204.56;;;20.95;51.65
63901;BME280;50538;53.482;10.294;2022-09-21T08:49:15;102205.34;;;21.17;50.86
63901;BME280;50538;53.482;10.294;2022-09-21T08:59:16;102217.16;;;21.57;48.83
63901;BME280;50538;53.482;10.294;2022-09-21T09:09:28;102214.78;;;21.89;48.52
63901;BME280;50538;53.482;10.294;2022-09-21T09:19:44;102217.97;;;22.19;47.64
63901;BME280;50538;53.482;10.294;2022-09-21T09:40:00;102228.34;;;21.41;48.65
63901;BME280;50538;53.482;10.294;2022-09-21T10:00:12;102219.81;;;23.10;45.11
63901;BME280;50538;53.482;10.294;2022-09-21T10:10:30;102211.34;;;23.83;40.50
63901;BME280;50538;53.482;10.294;2022-09-21T10:20:32;102206.47;;;23.67;39.85
63901;BME280;50538;53.482;10.294;2022-09-21T10:30:36;102204.84;;;23.46;40.51
63901;BME280;50538;53.482;10.294;2022-09-21T10:40:38;102196.25;;;23.62;37.20
63901;BME280;50538;53.482;10.294;2022-09-21T10:50:44;102194.31;;;23.76;38.30
63901;BME280;50538;53.482;10.294;2022-09-21T11:00:46;102186.44;;;23.68;37.56
63901;BME280;50538;53.482;10.294;2022-09-21T11:11:23;102181.75;;;24.13;38.79
63901;BME280;50538;53.482;10.294;2022-09-21T11:21:53;102178.81;;;23.83;35.62
63901;BME280;50538;53.482;10.294;2022-09-21T11:32:05;102183.19;;;23.84;33.01
63901;BME280;50538;53.482;10.294;2022-09-21T11:52:46;102181.34;;;24.09;32.37
63901;BME280;50538;53.482;10.294;2022-09-21T12:23:45;102146.59;;;24.25;36.61
63901;BME280;50538;53.482;10.294;2022-09-21T12:34:08;102157.47;;;23.10;37.20
63901;BME280;50538;53.482;10.294;2022-09-21T12:44:17;102154.06;;;22.57;35.69
63901;BME280;50538;53.482;10.294;2022-09-21T12:54:31;102151.91;;;22.92;34.18
63901;BME280;50538;53.482;10.294;2022-09-21T13:15:02;102127.53;;;23.37;33.71
63901;BME280;50538;53.482;10.294;2022-09-21T13:25:05;102131.88;;;23.51;31.45
63901;BME280;50538;53.482;10.294;2022-09-21T13:45:52;102126.06;;;23.41;33.56
63901;BME280;50538;53.482;10.294;2022-09-21T13:56:05;102125.81;;;23.11;34.72
63901;BME280;50538;53.482;10.294;2022-09-21T14:06:41;102115.91;;;22.78;36.64
63901;BME280;50538;53.482;10.294;2022-09-21T14:26:50;102096.09;;;22.85;35.93
63901;BME280;50538;53.482;10.294;2022-09-21T14:36:56;102089.31;;;23.14;35.57
63901;BME280;50538;53.482;10.294;2022-09-21T14:47:21;102083.81;;;23.27;33.70
63901;BME280;50538;53.482;10.294;2022-09-21T15:08:38;102066.59;;;23.15;34.86
63901;BME280;50538;53.482;10.294;2022-09-21T15:19:23;102066.00;;;23.06;36.14
63901;BME280;50538;53.482;10.294;2022-09-21T15:29:27;102059.72;;;23.12;35.91
63901;BME280;50538;53.482;10.294;2022-09-21T15:39:31;102049.91;;;23.18;36.94
63901;BME280;50538;53.482;10.294;2022-09-21T15:49:32;102050.00;;;22.98;35.84
63901;BME280;50538;53.482;10.294;2022-09-21T15:59:33;102052.16;;;22.76;36.60
63901;BME280;50538;53.482;10.294;2022-09-21T16:09:43;102060.13;;;22.58;40.84
63901;BME280;50538;53.482;10.294;2022-09-21T16:29:52;102057.50;;;21.78;46.12
63901;BME280;50538;53.482;10.294;2022-09-21T16:39:55;102069.97;;;21.46;47.86
63901;BME280;50538;53.482;10.294;2022-09-21T16:49:58;102070.47;;;21.09;49.08
63901;BME280;50538;53.482;10.294;2022-09-21T17:00:08;102070.13;;;20.77;49.64
63901;BME280;50538;53.482;10.294;2022-09-21T17:10:43;102076.34;;;20.43;50.64
63901;BME280;50538;53.482;10.294;2022-09-21T17:20:44;102077.53;;;20.06;51.35
63901;BME280;50538;53.482;10.294;2022-09-21T17:30:45;102073.53;;;19.74;51.70
63901;BME280;50538;53.482;10.294;2022-09-21T17:40:47;102077.13;;;19.39;52.20
63901;BME280;50538;53.482;10.294;2022-09-21T17:50:50;102072.00;;;19.08;52.26
63901;BME280;50538;53.482;10.294;2022-09-21T18:01:37;102083.34;;;18.74;53.14
63901;BME280;50538;53.482;10.294;2022-09-21T18:33:17;102091.28;;;17.63;54.55
63901;BME280;50538;53.482;10.294;2022-09-21T18:53:49;102099.94;;;17.19;55.29
63901;BME280;50538;53.482;10.294;2022-09-21T19:04:12;102098.81;;;17.05;55.65
63901;BME280;50538;53.482;10.294;2022-09-21T19:35:37;102096.53;;;16.39;56.10
63901;BME280;50538;53.482;10.294;2022-09-21T19:46:27;102111.81;;;16.22;55.66
63901;BME280;50538;53.482;10.294;2022-09-21T19:56:17;102112.81;;;16.05;56.49
63901;BME280;50538;53.482;10.294;2022-09-21T20:06:46;102111.81;;;15.98;57.23
63901;BME280;50538;53.482;10.294;2022-09-21T20:16:55;102111.81;;;16.06;58.05
63901;BME280;50538;53.482;10.294;2022-09-21T20:27:19;102122.19;;;16.09;58.47
63901;BME280;50538;53.482;10.294;2022-09-21T20:37:23;102113.81;;;16.04;58.74
63901;BME280;50538;53.482;10.294;2022-09-21T20:47:27;102117.34;;;16.04;58.86
63901;BME280;50538;53.482;10.294;2022-09-21T20:57:51;102116.16;;;16.07;58.17
63901;BME280;50538;53.482;10.294;2022-09-21T21:07:55;102121.34;;;16.08;59.20
63901;BME280;50538;53.482;10.294;2022-09-21T21:17:59;102110.13;;;16.13;59.04
63901;BME280;50538;53.482;10.294;2022-09-21T21:28:03;102119.00;;;16.05;58.52
63901;BME280;50538;53.482;10.294;2022-09-21T21:38:07;102124.34;;;15.81;59.04
63901;BME280;50538;53.482;10.294;2022-09-21T21:48:12;102113.31;;;15.68;57.91
63901;BME280;50538;53.482;10.294;2022-09-21T21:58:16;102123.81;;;15.53;58.19
63901;BME280;50538;53.482;10.294;2022-09-21T22:08:23;102116.41;;;15.31;58.33
63901;BME280;50538;53.482;10.294;2022-09-21T22:18:28;102115.84;;;15.19;57.91
63901;BME280;50538;53.482;10.294;2022-09-21T22:28:45;102112.63;;;15.07;58.68
63901;BME280;50538;53.482;10.294;2022-09-21T22:38:51;102113.91;;;14.95;58.19
63901;BME280;50538;53.482;10.294;2022-09-21T22:48:54;102117.19;;;14.81;58.86
63901;BME280;50538;53.482;10.294;2022-09-21T22:58:57;102114.94;;;14.68;58.86
63901;BME280;50538;53.482;10.294;2022-09-21T23:09:00;102114.75;;;14.62;58.35
63901;BME280;50538;53.482;10.294;2022-09-21T23:19:04;102104.38;;;14.58;57.87
63901;BME280;50538;53.482;10.294;2022-09-21T23:29:13;102098.47;;;14.47;57.79
63901;BME280;50538;53.482;10.294;2022-09-21T23:39:22;102089.50;;;14.30;58.05
63901;BME280;50538;53.482;10.294;2022-09-21T23:49:40;102084.41;;;14.19;58.13
63901;BME280;50538;53.482;10.294;2022-09-21T23:59:44;102079.31;;;14.08;58.25
